createdAt,value
2019-01-08T00:00:43.027Z,0.00
2019-01-08T00:01:43.015Z,0.00
2019-01-08T00:02:43.012Z,0.00
2019-01-08T00:03:43.008Z,0.00
2019-01-08T00:04:43.027Z,0.00
2019-01-08T00:05:42.997Z,0.00
2019-01-08T00:06:42.986Z,0.00
2019-01-08T00:07:42.987Z,0.00
2019-01-08T00:08:42.987Z,0.00
2019-01-08T00:09:42.998Z,0.00
2019-01-08T00:10:42.970Z,0.00
2019-01-08T00:11:42.960Z,0.00
2019-01-08T00:12:42.957Z,0.00
2019-01-08T00:13:42.946Z,0.00
2019-01-08T00:14:42.976Z,0.00
2019-01-08T00:15:43.019Z,0.00
2019-01-08T00:16:42.931Z,0.00
2019-01-08T00:17:42.920Z,0.00
2019-01-08T00:18:42.918Z,0.00
2019-01-08T00:19:42.941Z,0.00
2019-01-08T00:20:42.904Z,0.00
2019-01-08T00:21:42.905Z,0.00
2019-01-08T00:22:42.892Z,0.00
2019-01-08T00:23:42.898Z,0.00
2019-01-08T00:24:42.914Z,0.00
2019-01-08T00:25:42.878Z,0.00
2019-01-08T00:26:42.878Z,0.00
2019-01-08T00:27:42.865Z,0.00
2019-01-08T00:28:43.465Z,0.00
2019-01-08T00:29:42.882Z,0.00
2019-01-08T00:30:42.850Z,0.00
2019-01-08T00:31:42.840Z,0.00
2019-01-08T00:32:42.838Z,0.00
2019-01-08T00:33:42.830Z,0.00
2019-01-08T00:34:42.856Z,0.00
2019-01-08T00:35:42.821Z,0.00
2019-01-08T00:36:42.813Z,0.00
2019-01-08T00:37:42.804Z,0.00
2019-01-08T00:38:42.800Z,0.00
2019-01-08T00:39:42.824Z,0.00
2019-01-08T00:40:42.792Z,0.00
2019-01-08T00:41:42.784Z,0.00
2019-01-08T00:42:42.774Z,0.00
2019-01-08T00:43:42.773Z,0.00
2019-01-08T00:44:42.792Z,0.00
2019-01-08T00:45:42.760Z,0.00
2019-01-08T00:46:42.756Z,0.00
2019-01-08T00:47:42.747Z,0.00
2019-01-08T00:48:42.745Z,0.00
2019-01-08T00:49:42.764Z,0.00
2019-01-08T00:50:42.741Z,0.00
2019-01-08T00:51:42.724Z,0.00
2019-01-08T00:52:42.719Z,0.00
2019-01-08T00:53:42.715Z,0.00
2019-01-08T00:54:42.736Z,0.00
2019-01-08T00:55:42.709Z,0.00
2019-01-08T00:56:42.695Z,0.00
2019-01-08T00:57:42.691Z,0.00
2019-01-08T00:58:42.683Z,0.00
2019-01-08T00:59:42.708Z,0.00
2019-01-08T01:00:42.679Z,0.00
2019-01-08T01:01:42.666Z,0.00
2019-01-08T01:02:42.666Z,0.00
2019-01-08T01:03:42.652Z,0.00
2019-01-08T01:04:42.688Z,0.00
2019-01-08T01:05:42.640Z,0.00
2019-01-08T01:06:42.640Z,0.00
2019-01-08T01:07:42.632Z,0.00
2019-01-08T01:08:42.626Z,0.00
2019-01-08T01:09:42.650Z,0.00
2019-01-08T01:10:42.619Z,0.00
2019-01-08T01:11:42.610Z,0.00
2019-01-08T01:12:42.608Z,0.00
2019-01-08T01:13:42.601Z,0.00
2019-01-08T01:14:42.624Z,0.00
2019-01-08T01:15:42.586Z,0.00
2019-01-08T01:16:42.611Z,0.00
2019-01-08T01:17:42.578Z,0.00
2019-01-08T01:18:42.570Z,0.00
2019-01-08T01:19:42.564Z,0.00
2019-01-08T01:20:42.589Z,0.00
2019-01-08T01:21:42.553Z,0.00
2019-01-08T01:22:42.548Z,0.00
2019-01-08T01:23:42.548Z,0.00
2019-01-08T01:24:42.537Z,0.00
2019-01-08T01:25:42.557Z,0.00
2019-01-08T01:26:42.526Z,0.00
2019-01-08T01:27:42.518Z,0.00
2019-01-08T01:28:42.516Z,0.00
2019-01-08T01:29:42.540Z,0.00
2019-01-08T01:30:42.502Z,0.00
2019-01-08T01:31:42.497Z,0.00
2019-01-08T01:32:42.491Z,0.00
2019-01-08T01:33:42.484Z,0.00
2019-01-08T01:34:42.511Z,0.00
2019-01-08T01:35:42.473Z,0.00
2019-01-08T01:36:42.468Z,0.00
2019-01-08T01:37:42.464Z,0.00
2019-01-08T01:38:42.456Z,0.00
2019-01-08T01:39:42.480Z,0.00
2019-01-08T01:40:42.450Z,0.00
2019-01-08T01:41:42.442Z,0.00
2019-01-08T01:42:42.434Z,0.00
2019-01-08T01:43:42.430Z,0.00
2019-01-08T01:44:42.449Z,0.00
2019-01-08T01:45:42.417Z,0.00
2019-01-08T01:46:42.413Z,0.00
2019-01-08T01:47:42.405Z,0.00
2019-01-08T01:48:42.402Z,0.00
2019-01-08T01:49:42.441Z,0.00
2019-01-08T01:50:42.390Z,0.00
2019-01-08T01:51:42.383Z,0.00
2019-01-08T01:52:42.375Z,0.00
2019-01-08T01:53:42.371Z,0.00
2019-01-08T01:54:42.387Z,0.00
2019-01-08T01:55:42.359Z,0.00
2019-01-08T01:56:42.354Z,0.00
2019-01-08T01:57:42.348Z,0.00
2019-01-08T01:58:42.343Z,0.00
2019-01-08T01:59:42.364Z,0.00
2019-01-08T02:00:42.330Z,0.00
2019-01-08T02:01:42.323Z,0.00
2019-01-08T02:02:42.318Z,0.00
2019-01-08T02:03:42.316Z,0.00
2019-01-08T02:04:42.334Z,0.00
2019-01-08T02:05:42.302Z,0.00
2019-01-08T02:06:42.294Z,0.00
2019-01-08T02:07:42.290Z,0.00
2019-01-08T02:08:42.286Z,0.00
2019-01-08T02:09:42.306Z,0.00
2019-01-08T02:10:42.274Z,0.00
2019-01-08T02:11:42.270Z,0.00
2019-01-08T02:12:42.264Z,0.00
2019-01-08T02:13:42.258Z,0.00
2019-01-08T02:14:42.282Z,0.00
2019-01-08T02:15:42.275Z,0.00
2019-01-08T02:16:42.242Z,0.00
2019-01-08T02:17:42.233Z,0.00
2019-01-08T02:18:42.232Z,0.00
2019-01-08T02:19:42.222Z,0.00
2019-01-08T02:20:42.251Z,0.00
2019-01-08T02:21:42.214Z,0.00
2019-01-08T02:22:42.209Z,0.00
2019-01-08T02:23:42.200Z,0.00
2019-01-08T02:24:42.198Z,0.00
2019-01-08T02:25:42.220Z,0.00
2019-01-08T02:26:42.181Z,0.00
2019-01-08T02:27:42.177Z,0.00
2019-01-08T02:28:42.180Z,0.00
2019-01-08T02:29:42.169Z,0.00
2019-01-08T02:30:42.191Z,0.00
2019-01-08T02:31:42.144Z,0.00
2019-01-08T02:32:42.151Z,0.00
2019-01-08T02:33:42.154Z,0.00
2019-01-08T02:34:42.146Z,0.00
2019-01-08T02:35:42.163Z,0.00
2019-01-08T02:36:42.157Z,0.00
2019-01-08T02:37:42.128Z,0.00
2019-01-08T02:38:42.116Z,0.00
2019-01-08T02:39:42.111Z,0.00
2019-01-08T02:40:42.111Z,0.00
2019-01-08T02:41:42.158Z,0.00
2019-01-08T02:42:42.096Z,0.00
2019-01-08T02:43:42.088Z,0.00
2019-01-08T02:44:42.115Z,0.00
2019-01-08T02:45:42.159Z,0.00
2019-01-08T02:46:42.157Z,0.00
2019-01-08T02:47:42.068Z,0.00
2019-01-08T02:48:42.067Z,0.00
2019-01-08T02:49:42.057Z,0.00
2019-01-08T02:50:42.050Z,0.00
2019-01-08T02:51:42.077Z,0.00
2019-01-08T02:52:42.054Z,0.00
2019-01-08T02:53:42.035Z,0.00
2019-01-08T02:54:42.074Z,0.00
2019-01-08T02:55:42.024Z,0.00
2019-01-08T02:56:42.048Z,0.00
2019-01-08T02:57:42.014Z,0.00
2019-01-08T02:58:42.007Z,0.00
2019-01-08T02:59:42.004Z,0.00
2019-01-08T03:00:41.994Z,0.00
2019-01-08T03:01:42.020Z,0.00
2019-01-08T03:02:41.987Z,0.00
2019-01-08T03:03:41.982Z,0.00
2019-01-08T03:04:41.976Z,0.00
2019-01-08T03:05:41.967Z,0.00
2019-01-08T03:06:41.992Z,0.00
2019-01-08T03:07:41.959Z,0.00
2019-01-08T03:08:41.954Z,0.00
2019-01-08T03:09:41.946Z,0.00
2019-01-08T03:10:41.942Z,0.00
2019-01-08T03:11:41.966Z,0.00
2019-01-08T03:12:41.930Z,0.00
2019-01-08T03:13:41.926Z,0.00
2019-01-08T03:14:41.920Z,0.00
2019-01-08T03:15:41.913Z,0.00
2019-01-08T03:16:41.938Z,0.00
2019-01-08T03:17:41.901Z,0.00
2019-01-08T03:18:41.897Z,0.00
2019-01-08T03:19:41.899Z,0.00
2019-01-08T03:20:41.885Z,0.00
2019-01-08T03:21:41.910Z,0.00
2019-01-08T03:22:41.873Z,0.00
2019-01-08T03:23:41.870Z,0.00
2019-01-08T03:24:41.865Z,0.00
2019-01-08T03:25:41.861Z,0.00
2019-01-08T03:26:41.885Z,0.00
2019-01-08T03:27:41.850Z,0.00
2019-01-08T03:28:41.844Z,0.00
2019-01-08T03:29:41.840Z,0.00
2019-01-08T03:30:41.834Z,0.00
2019-01-08T03:31:41.859Z,0.00
2019-01-08T03:32:41.817Z,0.00
2019-01-08T03:33:41.818Z,0.00
2019-01-08T03:34:41.820Z,0.00
2019-01-08T03:35:41.804Z,0.00
2019-01-08T03:36:41.829Z,0.00
2019-01-08T03:37:41.792Z,0.00
2019-01-08T03:38:41.790Z,0.00
2019-01-08T03:39:41.784Z,0.00
2019-01-08T03:40:41.775Z,0.00
2019-01-08T03:41:41.773Z,0.00
2019-01-08T03:42:41.796Z,0.00
2019-01-08T03:43:41.760Z,0.00
2019-01-08T03:44:41.757Z,0.00
2019-01-08T03:45:41.751Z,0.00
2019-01-08T03:46:41.743Z,0.00
2019-01-08T03:47:41.768Z,0.00
2019-01-08T03:48:41.735Z,0.00
2019-01-08T03:49:41.732Z,0.00
2019-01-08T03:50:41.720Z,0.00
2019-01-08T03:51:41.749Z,0.00
2019-01-08T03:52:41.711Z,0.00
2019-01-08T03:53:41.708Z,0.00
2019-01-08T03:54:41.703Z,0.00
2019-01-08T03:55:41.697Z,0.00
2019-01-08T03:56:41.721Z,0.00
2019-01-08T03:57:41.687Z,0.00
2019-01-08T03:58:41.710Z,0.00
2019-01-08T03:59:42.184Z,0.00
2019-01-08T04:00:41.670Z,0.00
2019-01-08T04:01:41.663Z,0.00
2019-01-08T04:02:41.687Z,0.00
2019-01-08T04:03:41.654Z,0.00
2019-01-08T04:04:41.653Z,0.00
2019-01-08T04:05:41.646Z,0.00
2019-01-08T04:06:41.714Z,0.00
2019-01-08T04:07:41.658Z,0.00
2019-01-08T04:08:41.627Z,0.00
2019-01-08T04:09:41.621Z,0.00
2019-01-08T04:10:41.617Z,0.00
2019-01-08T04:11:41.610Z,0.00
2019-01-08T04:12:41.718Z,0.00
2019-01-08T04:13:41.601Z,0.00
2019-01-08T04:14:41.593Z,0.00
2019-01-08T04:15:41.593Z,0.00
2019-01-08T04:16:41.585Z,0.00
2019-01-08T04:17:41.608Z,0.00
2019-01-08T04:18:41.574Z,0.00
2019-01-08T04:19:41.572Z,0.00
2019-01-08T04:20:41.566Z,0.00
2019-01-08T04:21:41.557Z,0.00
2019-01-08T04:22:41.580Z,0.00
2019-01-08T04:23:41.549Z,0.00
2019-01-08T04:24:41.565Z,0.00
2019-01-08T04:25:41.537Z,0.00
2019-01-08T04:26:41.539Z,0.00
2019-01-08T04:27:41.560Z,0.00
2019-01-08T04:28:41.520Z,0.00
2019-01-08T04:29:41.519Z,0.00
2019-01-08T04:30:41.516Z,0.00
2019-01-08T04:31:41.510Z,0.00
2019-01-08T04:32:41.530Z,0.00
2019-01-08T04:33:41.493Z,0.00
2019-01-08T04:34:41.488Z,0.00
2019-01-08T04:35:41.486Z,0.00
2019-01-08T04:36:41.477Z,0.00
2019-01-08T04:37:41.504Z,0.00
2019-01-08T04:38:41.468Z,0.00
2019-01-08T04:39:41.467Z,0.00
2019-01-08T04:40:41.459Z,0.00
2019-01-08T04:41:41.456Z,0.00
2019-01-08T04:42:41.474Z,0.00
2019-01-08T04:43:41.440Z,0.00
2019-01-08T04:44:41.437Z,0.00
2019-01-08T04:45:41.427Z,0.00
2019-01-08T04:46:41.424Z,0.00
2019-01-08T04:47:41.448Z,0.00
2019-01-08T04:48:41.412Z,0.00
2019-01-08T04:49:41.408Z,0.00
2019-01-08T04:50:41.401Z,0.00
2019-01-08T04:51:41.402Z,0.00
2019-01-08T04:52:41.420Z,0.00
2019-01-08T04:53:41.384Z,0.00
2019-01-08T04:54:41.379Z,0.00
2019-01-08T04:55:41.371Z,0.00
2019-01-08T04:56:41.380Z,0.00
2019-01-08T04:57:41.392Z,0.00
2019-01-08T04:58:41.356Z,0.00
2019-01-08T04:59:41.354Z,0.00
2019-01-08T05:00:41.342Z,0.00
2019-01-08T05:01:41.339Z,0.00
2019-01-08T05:02:41.366Z,0.00
2019-01-08T05:03:41.360Z,0.00
2019-01-08T05:04:41.323Z,0.00
2019-01-08T05:05:41.318Z,0.00
2019-01-08T05:06:41.311Z,0.00
2019-01-08T05:07:41.307Z,0.00
2019-01-08T05:08:41.321Z,0.00
2019-01-08T05:09:41.298Z,0.00
2019-01-08T05:10:41.332Z,0.00
2019-01-08T05:11:41.282Z,0.00
2019-01-08T05:12:41.279Z,0.00
2019-01-08T05:13:41.299Z,0.00
2019-01-08T05:14:41.277Z,0.00
2019-01-08T05:15:41.258Z,0.00
2019-01-08T05:16:41.257Z,0.00
2019-01-08T05:17:41.251Z,0.00
2019-01-08T05:18:41.276Z,0.00
2019-01-08T05:19:41.240Z,0.00
2019-01-08T05:20:41.233Z,0.00
2019-01-08T05:21:41.226Z,0.00
2019-01-08T05:22:41.225Z,0.00
2019-01-08T05:23:41.250Z,0.00
2019-01-08T05:24:41.208Z,0.00
2019-01-08T05:25:41.201Z,0.00
2019-01-08T05:26:41.198Z,0.00
2019-01-08T05:27:41.192Z,0.00
2019-01-08T05:28:41.218Z,0.00
2019-01-08T05:29:41.183Z,0.00
2019-01-08T05:30:41.173Z,0.00
2019-01-08T05:31:41.272Z,0.00
2019-01-08T05:32:41.165Z,0.00
2019-01-08T05:33:41.198Z,0.00
2019-01-08T05:34:41.155Z,0.00
2019-01-08T05:35:41.148Z,0.00
2019-01-08T05:36:41.140Z,0.00
2019-01-08T05:37:41.136Z,0.00
2019-01-08T05:38:41.161Z,0.00
2019-01-08T05:39:41.137Z,0.00
2019-01-08T05:40:41.121Z,0.00
2019-01-08T05:41:41.115Z,0.00
2019-01-08T05:42:41.109Z,0.00
2019-01-08T05:43:41.148Z,0.00
2019-01-08T05:44:41.098Z,0.00
2019-01-08T05:45:41.102Z,0.00
2019-01-08T05:46:41.090Z,0.00
2019-01-08T05:47:41.081Z,0.00
2019-01-08T05:48:41.100Z,0.00
2019-01-08T05:49:41.068Z,0.00
2019-01-08T05:50:41.060Z,0.00
2019-01-08T05:51:41.057Z,0.00
2019-01-08T05:52:41.052Z,0.00
2019-01-08T05:53:41.071Z,0.00
2019-01-08T05:54:41.039Z,0.00
2019-01-08T05:55:41.031Z,0.00
2019-01-08T05:56:41.037Z,0.00
2019-01-08T05:57:41.024Z,0.00
2019-01-08T05:58:41.044Z,0.00
2019-01-08T05:59:41.022Z,0.00
2019-01-08T06:00:41.007Z,0.00
2019-01-08T06:01:40.999Z,0.00
2019-01-08T06:02:44.726Z,0.00
2019-01-08T06:03:41.018Z,0.00
2019-01-08T06:04:40.984Z,0.00
2019-01-08T06:05:40.980Z,0.00
2019-01-08T06:06:40.972Z,0.00
2019-01-08T06:07:40.968Z,0.00
2019-01-08T06:08:40.992Z,0.00
2019-01-08T06:09:40.955Z,0.00
2019-01-08T06:10:40.951Z,0.00
2019-01-08T06:11:40.944Z,0.00
2019-01-08T06:12:40.943Z,0.00
2019-01-08T06:13:40.958Z,0.00
2019-01-08T06:14:40.928Z,0.00
2019-01-08T06:15:40.923Z,0.00
2019-01-08T06:16:40.930Z,0.00
2019-01-08T06:17:40.915Z,0.00
2019-01-08T06:18:40.939Z,0.00
2019-01-08T06:19:40.898Z,0.00
2019-01-08T06:20:40.926Z,0.00
2019-01-08T06:21:40.910Z,0.00
2019-01-08T06:22:40.883Z,0.00
2019-01-08T06:23:40.879Z,0.00
2019-01-08T06:24:40.904Z,0.00
2019-01-08T06:25:40.884Z,0.00
2019-01-08T06:26:40.863Z,0.00
2019-01-08T06:27:40.859Z,0.00
2019-01-08T06:28:40.851Z,0.00
2019-01-08T06:29:40.874Z,0.00
2019-01-08T06:30:40.857Z,0.00
2019-01-08T06:31:40.835Z,0.00
2019-01-08T06:32:40.830Z,0.00
2019-01-08T06:33:40.832Z,0.00
2019-01-08T06:34:40.850Z,0.00
2019-01-08T06:35:40.821Z,0.00
2019-01-08T06:36:40.817Z,4.00
2019-01-08T06:37:40.821Z,4.00
2019-01-08T06:38:40.800Z,4.00
2019-01-08T06:39:40.837Z,4.00
2019-01-08T06:40:40.794Z,4.00
2019-01-08T06:41:40.781Z,4.00
2019-01-08T06:42:40.781Z,8.00
2019-01-08T06:43:40.775Z,4.00
2019-01-08T06:44:40.802Z,8.00
2019-01-08T06:45:40.761Z,8.00
2019-01-08T06:46:43.114Z,12.00
2019-01-08T06:47:40.748Z,12.00
2019-01-08T06:48:40.747Z,20.00
2019-01-08T06:49:40.771Z,16.00
2019-01-08T06:50:40.734Z,20.00
2019-01-08T06:51:40.742Z,24.00
2019-01-08T06:52:40.731Z,28.00
2019-01-08T06:53:40.718Z,28.00
2019-01-08T06:54:40.741Z,36.00
2019-01-08T06:55:40.708Z,36.00
2019-01-08T06:56:40.700Z,44.00
2019-01-08T06:57:40.708Z,52.00
2019-01-08T06:58:40.693Z,56.00
2019-01-08T06:59:40.716Z,68.00
2019-01-08T07:00:40.682Z,72.00
2019-01-08T07:01:40.676Z,84.00
2019-01-08T07:02:40.674Z,88.00
2019-01-08T07:03:40.669Z,92.00
2019-01-08T07:04:40.688Z,100.00
2019-01-08T07:05:40.662Z,120.00
2019-01-08T07:06:40.648Z,140.00
2019-01-08T07:07:40.645Z,156.00
2019-01-08T07:08:40.646Z,180.00
2019-01-08T07:09:40.665Z,212.00
2019-01-08T07:10:40.626Z,240.00
2019-01-08T07:11:40.624Z,268.00
2019-01-08T07:12:40.625Z,304.00
2019-01-08T07:13:40.617Z,340.00
2019-01-08T07:14:40.635Z,372.00
2019-01-08T07:15:40.604Z,432.00
2019-01-08T07:16:40.599Z,504.00
2019-01-08T07:17:40.591Z,544.00
2019-01-08T07:18:40.587Z,604.00
2019-01-08T07:19:40.612Z,716.00
2019-01-08T07:20:40.584Z,776.00
2019-01-08T07:21:40.571Z,836.00
2019-01-08T07:22:40.567Z,916.00
2019-01-08T07:23:40.566Z,880.00
2019-01-08T07:24:40.593Z,844.00
2019-01-08T07:25:42.269Z,816.00
2019-01-08T07:26:40.553Z,800.00
2019-01-08T07:27:40.542Z,780.00
2019-01-08T07:28:40.539Z,712.00
2019-01-08T07:29:40.566Z,616.00
2019-01-08T07:30:41.687Z,560.00
2019-01-08T07:31:40.524Z,464.00
2019-01-08T07:32:40.517Z,392.00
2019-01-08T07:33:40.514Z,384.00
2019-01-08T07:34:40.541Z,412.00
2019-01-08T07:35:40.509Z,404.00
2019-01-08T07:36:40.498Z,384.00
2019-01-08T07:37:40.496Z,400.00
2019-01-08T07:38:40.585Z,448.00
2019-01-08T07:39:40.514Z,496.00
2019-01-08T07:40:41.478Z,512.00
2019-01-08T07:41:40.503Z,492.00
2019-01-08T07:42:40.466Z,488.00
2019-01-08T07:43:40.461Z,500.00
2019-01-08T07:44:40.457Z,560.00
2019-01-08T07:45:40.485Z,608.00
2019-01-08T07:46:40.448Z,708.00
2019-01-08T07:47:40.442Z,768.00
2019-01-08T07:48:40.438Z,720.00
2019-01-08T07:49:40.435Z,796.00
2019-01-08T07:50:40.456Z,964.00
2019-01-08T07:51:40.421Z,1164.00
2019-01-08T07:52:40.419Z,1312.00
2019-01-08T07:53:40.420Z,1400.00
2019-01-08T07:54:40.408Z,1316.00
2019-01-08T07:55:40.441Z,1268.00
2019-01-08T07:56:40.399Z,1200.00
2019-01-08T07:57:40.393Z,1316.00
2019-01-08T07:58:40.389Z,1384.00
2019-01-08T07:59:40.413Z,1512.00
2019-01-08T08:00:40.408Z,1820.00
2019-01-08T08:01:40.371Z,1916.00
2019-01-08T08:02:40.370Z,2076.00
2019-01-08T08:03:40.366Z,2280.00
2019-01-08T08:04:47.479Z,2412.00
2019-01-08T08:05:40.384Z,2344.00
2019-01-08T08:06:40.348Z,2336.00
2019-01-08T08:07:40.341Z,2460.00
2019-01-08T08:08:40.339Z,2388.00
2019-01-08T08:09:40.333Z,2400.00
2019-01-08T08:10:40.356Z,2284.00
2019-01-08T08:11:40.328Z,2076.00
2019-01-08T08:12:40.319Z,2084.00
2019-01-08T08:13:40.313Z,2332.00
2019-01-08T08:14:40.317Z,2468.00
2019-01-08T08:15:40.338Z,2240.00
2019-01-08T08:16:40.328Z,1756.00
2019-01-08T08:17:40.295Z,1364.00
2019-01-08T08:18:40.287Z,1368.00
2019-01-08T08:19:40.284Z,1484.00
2019-01-08T08:20:40.311Z,1916.00
2019-01-08T08:21:40.278Z,2128.00
2019-01-08T08:22:40.271Z,1940.00
2019-01-08T08:23:40.267Z,1744.00
2019-01-08T08:24:40.260Z,2076.00
2019-01-08T08:25:40.292Z,2580.00
2019-01-08T08:26:40.253Z,2184.00
2019-01-08T08:27:40.249Z,1504.00
2019-01-08T08:28:40.243Z,1620.00
2019-01-08T08:29:40.235Z,1368.00
2019-01-08T08:30:40.259Z,1332.00
2019-01-08T08:31:40.227Z,1384.00
2019-01-08T08:32:40.223Z,1504.00
2019-01-08T08:33:40.213Z,2164.00
2019-01-08T08:34:40.213Z,2696.00
2019-01-08T08:35:40.234Z,2464.00
2019-01-08T08:36:40.202Z,2300.00
2019-01-08T08:37:40.200Z,1992.00
2019-01-08T08:38:40.195Z,1884.00
2019-01-08T08:39:40.188Z,1864.00
2019-01-08T08:40:40.213Z,1536.00
2019-01-08T08:41:40.185Z,1420.00
2019-01-08T08:42:40.174Z,1432.00
2019-01-08T08:43:40.169Z,1608.00
2019-01-08T08:44:40.162Z,1988.00
2019-01-08T08:45:40.189Z,2032.00
2019-01-08T08:46:40.154Z,2068.00
2019-01-08T08:47:40.149Z,2064.00
2019-01-08T08:48:40.147Z,2092.00
2019-01-08T08:49:40.138Z,2380.00
2019-01-08T08:50:40.166Z,2180.00
2019-01-08T08:51:40.135Z,2312.00
2019-01-08T08:52:40.125Z,2008.00
2019-01-08T08:53:40.121Z,1852.00
2019-01-08T08:54:40.114Z,1740.00
2019-01-08T08:55:40.223Z,2004.00
2019-01-08T08:56:40.138Z,2256.00
2019-01-08T08:57:40.104Z,1980.00
2019-01-08T08:58:40.095Z,1904.00
2019-01-08T08:59:40.092Z,2088.00
2019-01-08T09:00:40.084Z,1932.00
2019-01-08T09:01:40.108Z,1992.00
2019-01-08T09:02:40.078Z,2204.00
2019-01-08T09:03:40.069Z,2132.00
2019-01-08T09:04:40.064Z,2192.00
2019-01-08T09:05:40.062Z,2248.00
2019-01-08T09:06:40.086Z,2152.00
2019-01-08T09:07:40.050Z,2276.00
2019-01-08T09:08:40.051Z,2044.00
2019-01-08T09:09:40.043Z,1712.00
2019-01-08T09:10:40.041Z,1952.00
2019-01-08T09:11:40.052Z,1868.00
2019-01-08T09:12:40.024Z,1952.00
2019-01-08T09:13:40.021Z,2136.00
2019-01-08T09:14:40.016Z,2536.00
2019-01-08T09:15:40.006Z,2424.00
2019-01-08T09:16:40.038Z,2828.00
2019-01-08T09:17:40.000Z,2796.00
2019-01-08T09:18:40.001Z,2548.00
2019-01-08T09:19:39.987Z,2844.00
2019-01-08T09:20:39.985Z,3004.00
2019-01-08T09:21:40.007Z,3116.00
2019-01-08T09:22:39.976Z,3632.00
2019-01-08T09:23:39.967Z,4368.00
2019-01-08T09:24:39.964Z,3952.00
2019-01-08T09:25:39.960Z,3908.00
2019-01-08T09:26:39.983Z,4704.00
2019-01-08T09:27:39.949Z,5308.00
2019-01-08T09:28:39.943Z,6100.00
2019-01-08T09:29:39.937Z,6460.00
2019-01-08T09:30:39.930Z,5112.00
2019-01-08T09:31:39.959Z,3688.00
2019-01-08T09:32:39.923Z,2300.00
2019-01-08T09:33:39.919Z,1944.00
2019-01-08T09:34:39.915Z,2512.00
2019-01-08T09:35:39.906Z,4088.00
2019-01-08T09:36:39.934Z,5844.00
2019-01-08T09:37:39.899Z,7776.00
2019-01-08T09:38:39.891Z,7044.00
2019-01-08T09:39:39.891Z,5540.00
2019-01-08T09:40:39.892Z,3596.00
2019-01-08T09:41:39.904Z,3476.00
2019-01-08T09:42:39.880Z,4328.00
2019-01-08T09:43:39.870Z,4900.00
2019-01-08T09:44:39.867Z,4880.00
2019-01-08T09:45:39.858Z,5188.00
2019-01-08T09:46:39.886Z,4504.00
2019-01-08T09:47:39.852Z,5436.00
2019-01-08T09:48:39.846Z,8320.00
2019-01-08T09:49:39.844Z,8412.00
2019-01-08T09:50:39.834Z,6196.00
2019-01-08T09:51:41.721Z,5584.00
2019-01-08T09:52:39.826Z,5532.00
2019-01-08T09:53:39.850Z,4248.00
2019-01-08T09:54:39.852Z,4312.00
2019-01-08T09:55:39.809Z,4716.00
2019-01-08T09:56:39.849Z,4164.00
2019-01-08T09:57:40.724Z,3856.00
2019-01-08T09:58:39.903Z,4136.00
2019-01-08T09:59:39.793Z,4884.00
2019-01-08T10:00:39.936Z,5500.00
2019-01-08T10:01:39.804Z,4604.00
2019-01-08T10:02:39.776Z,3968.00
2019-01-08T10:03:39.776Z,4612.00
2019-01-08T10:04:39.765Z,4260.00
2019-01-08T10:05:40.139Z,4100.00
2019-01-08T10:06:40.002Z,4828.00
2019-01-08T10:07:39.749Z,4572.00
2019-01-08T10:08:39.906Z,5464.00
2019-01-08T10:09:39.882Z,6556.00
2019-01-08T10:10:39.738Z,6728.00
2019-01-08T10:11:39.801Z,4912.00
2019-01-08T10:12:39.792Z,4040.00
2019-01-08T10:13:39.721Z,4288.00
2019-01-08T10:14:39.717Z,4004.00
2019-01-08T10:15:39.712Z,6456.00
2019-01-08T10:16:39.711Z,7480.00
2019-01-08T10:17:39.728Z,7788.00
2019-01-08T10:18:40.323Z,8068.00
2019-01-08T10:19:39.698Z,7960.00
2019-01-08T10:20:39.815Z,7644.00
2019-01-08T10:21:40.343Z,8648.00
2019-01-08T10:22:39.718Z,10796.00
2019-01-08T10:23:39.860Z,9972.00
2019-01-08T10:24:39.676Z,9556.00
2019-01-08T10:25:39.660Z,9304.00
2019-01-08T10:26:39.711Z,8948.00
2019-01-08T10:27:39.681Z,9812.00
2019-01-08T10:28:39.692Z,9244.00
2019-01-08T10:29:39.644Z,9040.00
2019-01-08T10:30:39.778Z,8572.00
2019-01-08T10:31:39.646Z,8292.00
2019-01-08T10:32:39.658Z,10264.00
2019-01-08T10:33:39.624Z,10500.00
2019-01-08T10:34:39.703Z,11000.00
2019-01-08T10:35:39.620Z,10704.00
2019-01-08T10:36:39.834Z,10712.00
2019-01-08T10:37:39.631Z,10316.00
2019-01-08T10:38:40.017Z,9452.00
2019-01-08T10:39:39.599Z,8560.00
2019-01-08T10:40:39.595Z,9648.00
2019-01-08T10:41:39.617Z,7328.00
2019-01-08T10:42:39.608Z,4640.00
2019-01-08T10:43:39.580Z,6548.00
2019-01-08T10:44:39.573Z,6924.00
2019-01-08T10:45:39.573Z,6796.00
2019-01-08T10:46:39.568Z,7368.00
2019-01-08T10:47:39.602Z,8564.00
2019-01-08T10:48:39.555Z,8084.00
2019-01-08T10:49:39.548Z,7196.00
2019-01-08T10:50:39.542Z,6332.00
2019-01-08T10:51:39.547Z,6384.00
2019-01-08T10:52:39.588Z,7260.00
2019-01-08T10:53:39.535Z,7940.00
2019-01-08T10:54:39.527Z,8600.00
2019-01-08T10:55:39.524Z,10872.00
2019-01-08T10:56:39.523Z,9872.00
2019-01-08T10:57:39.544Z,8320.00
2019-01-08T10:58:39.508Z,7696.00
2019-01-08T10:59:39.503Z,5904.00
2019-01-08T11:00:39.502Z,4504.00
2019-01-08T11:01:40.723Z,4216.00
2019-01-08T11:02:39.518Z,3784.00
2019-01-08T11:03:39.489Z,3920.00
2019-01-08T11:04:39.484Z,3764.00
2019-01-08T11:05:39.482Z,3840.00
2019-01-08T11:06:39.475Z,3432.00
2019-01-08T11:07:39.503Z,3024.00
2019-01-08T11:08:39.478Z,3604.00
2019-01-08T11:09:39.468Z,3884.00
2019-01-08T11:10:39.462Z,3240.00
2019-01-08T11:11:39.451Z,3164.00
2019-01-08T11:12:39.486Z,3820.00
2019-01-08T11:13:39.441Z,3712.00
2019-01-08T11:14:39.442Z,3464.00
2019-01-08T11:15:39.439Z,3784.00
2019-01-08T11:16:39.431Z,3184.00
2019-01-08T11:17:39.459Z,3208.00
2019-01-08T11:18:39.417Z,4012.00
2019-01-08T11:19:39.413Z,5028.00
2019-01-08T11:20:39.412Z,5324.00
2019-01-08T11:21:39.408Z,4516.00
2019-01-08T11:22:39.483Z,4980.00
2019-01-08T11:23:39.405Z,5472.00
2019-01-08T11:24:39.394Z,5564.00
2019-01-08T11:25:39.385Z,7064.00
2019-01-08T11:26:39.378Z,9472.00
2019-01-08T11:27:39.406Z,9160.00
2019-01-08T11:28:39.373Z,9364.00
2019-01-08T11:29:39.373Z,9664.00
2019-01-08T11:30:39.365Z,8456.00
2019-01-08T11:31:39.361Z,8992.00
2019-01-08T11:32:39.384Z,7688.00
2019-01-08T11:33:39.382Z,7320.00
2019-01-08T11:34:39.943Z,6316.00
2019-01-08T11:35:42.310Z,6104.00
2019-01-08T11:36:39.342Z,6020.00
2019-01-08T11:37:39.342Z,4704.00
2019-01-08T11:38:39.360Z,3820.00
2019-01-08T11:39:39.324Z,3484.00
2019-01-08T11:40:39.323Z,3064.00
2019-01-08T11:41:39.321Z,3036.00
2019-01-08T11:42:39.320Z,2796.00
2019-01-08T11:43:39.337Z,3152.00
2019-01-08T11:44:39.305Z,2924.00
2019-01-08T11:45:39.303Z,2516.00
2019-01-08T11:46:39.298Z,2792.00
2019-01-08T11:47:39.292Z,2164.00
2019-01-08T11:48:39.325Z,2124.00
2019-01-08T11:49:39.288Z,2072.00
2019-01-08T11:50:39.284Z,2088.00
2019-01-08T11:51:39.276Z,2436.00
2019-01-08T11:52:39.272Z,2392.00
2019-01-08T11:53:39.293Z,2608.00
2019-01-08T11:54:41.140Z,2500.00
2019-01-08T11:55:39.256Z,2320.00
2019-01-08T11:56:39.253Z,2720.00
2019-01-08T11:57:39.257Z,2600.00
2019-01-08T11:58:39.273Z,2688.00
2019-01-08T11:59:39.242Z,2264.00
2019-01-08T12:00:39.236Z,2116.00
2019-01-08T12:01:39.231Z,1916.00
2019-01-08T12:02:47.599Z,1776.00
2019-01-08T12:03:39.251Z,1968.00
2019-01-08T12:04:39.218Z,2124.00
2019-01-08T12:05:39.214Z,2376.00
2019-01-08T12:06:39.214Z,2732.00
2019-01-08T12:07:39.207Z,3020.00
2019-01-08T12:08:39.230Z,3240.00
2019-01-08T12:09:39.192Z,2820.00
2019-01-08T12:10:39.188Z,2464.00
2019-01-08T12:11:39.187Z,2264.00
2019-01-08T12:12:39.179Z,1852.00
2019-01-08T12:13:39.204Z,1784.00
2019-01-08T12:14:39.172Z,2108.00
2019-01-08T12:15:39.165Z,2288.00
2019-01-08T12:16:39.160Z,2108.00
2019-01-08T12:17:39.155Z,2192.00
2019-01-08T12:18:39.220Z,2652.00
2019-01-08T12:19:39.147Z,2960.00
2019-01-08T12:20:39.148Z,2864.00
2019-01-08T12:21:39.135Z,2772.00
2019-01-08T12:22:40.979Z,2568.00
2019-01-08T12:23:39.156Z,2220.00
2019-01-08T12:24:39.121Z,2188.00
2019-01-08T12:25:39.114Z,2064.00
2019-01-08T12:26:39.106Z,2108.00
2019-01-08T12:27:39.110Z,2492.00
2019-01-08T12:28:39.125Z,2796.00
2019-01-08T12:29:39.097Z,2692.00
2019-01-08T12:30:39.092Z,3052.00
2019-01-08T12:31:39.086Z,3324.00
2019-01-08T12:32:39.081Z,3432.00
2019-01-08T12:33:39.114Z,3528.00
2019-01-08T12:34:39.069Z,3956.00
2019-01-08T12:35:39.066Z,4064.00
2019-01-08T12:36:39.058Z,3768.00
2019-01-08T12:37:39.053Z,4548.00
2019-01-08T12:38:39.077Z,4336.00
2019-01-08T12:39:39.053Z,4900.00
2019-01-08T12:40:39.040Z,4676.00
2019-01-08T12:41:39.039Z,6852.00
2019-01-08T12:42:39.032Z,6808.00
2019-01-08T12:43:39.049Z,5860.00
2019-01-08T12:44:39.030Z,5008.00